createdAt,value
2022-09-06T00:01:08.210Z,99682.84
2022-09-06T00:03:34.610Z,99683.34
2022-09-06T00:06:09.539Z,99690.88
2022-09-06T00:08:36.301Z,99691.72
2022-09-06T00:11:03.692Z,99689.03
2022-09-06T00:13:30.080Z,99686.38
2022-09-06T00:15:56.564Z,99684.69
2022-09-06T00:18:23.080Z,99691.72
2022-09-06T00:20:49.520Z,99677.50
2022-09-06T00:23:15.893Z,99678.69
2022-09-06T00:25:42.265Z,99678.50
2022-09-06T00:28:08.665Z,99666.31
2022-09-06T00:30:35.085Z,99661.47
2022-09-06T00:33:01.502Z,99661.97
2022-09-06T00:35:28.500Z,99661.63
2022-09-06T00:37:59.932Z,99662.13
2022-09-06T00:40:29.354Z,99660.94
2022-09-06T00:42:57.396Z,99654.94
2022-09-06T00:45:27.086Z,99659.97
2022-09-06T00:47:53.760Z,99664.97
2022-09-06T00:50:20.318Z,99667.16
2022-09-06T00:52:51.502Z,99671.66
2022-09-06T00:55:18.644Z,99668.00
2022-09-06T00:57:46.468Z,99675.03
2022-09-06T01:00:13.463Z,99676.19
2022-09-06T01:02:39.984Z,99677.34
2022-09-06T01:05:06.808Z,99686.53
2022-09-06T01:07:42.090Z,99691.72
2022-09-06T01:10:33.499Z,99699.72
2022-09-06T01:13:04.415Z,99711.44
2022-09-06T01:15:47.291Z,99758.06
2022-09-06T01:18:38.627Z,99739.84
2022-09-06T01:21:20.307Z,99715.94
2022-09-06T01:24:19.316Z,99728.81
2022-09-06T01:27:04.576Z,99720.78
2022-09-06T01:29:44.935Z,99747.88
2022-09-06T01:32:23.842Z,99744.69
2022-09-06T01:35:06.774Z,99747.50
2022-09-06T01:37:33.618Z,99754.72
2022-09-06T01:40:00.121Z,99752.72
2022-09-06T01:42:30.014Z,99764.94
2022-09-06T01:45:01.493Z,99766.59
2022-09-06T01:48:16.225Z,99767.63
2022-09-06T01:50:53.987Z,99767.09
2022-09-06T01:53:52.237Z,99762.91
2022-09-06T01:56:47.277Z,99761.38
2022-09-06T01:59:35.220Z,99749.41
2022-09-06T02:02:13.916Z,99741.66
2022-09-06T02:04:50.813Z,99748.50
2022-09-06T02:07:24.580Z,99746.78
2022-09-06T02:10:00.343Z,99745.25
2022-09-06T02:12:30.131Z,99751.63
2022-09-06T02:15:02.268Z,99752.94
2022-09-06T02:17:37.178Z,99756.91
2022-09-06T02:20:09.684Z,99749.19
2022-09-06T02:22:46.956Z,99750.53
2022-09-06T02:25:21.772Z,99738.59
2022-09-06T02:27:48.228Z,99728.34
2022-09-06T02:30:14.670Z,99734.19
2022-09-06T02:32:48.216Z,99731.16
2022-09-06T02:35:16.500Z,99738.31
2022-09-06T02:37:43.554Z,99731.09
2022-09-06T02:40:11.000Z,99730.06
2022-09-06T02:42:38.044Z,99721.88
2022-09-06T02:45:05.216Z,99724.34
2022-09-06T02:47:31.592Z,99726.22
2022-09-06T02:49:58.064Z,99726.03
2022-09-06T02:52:24.588Z,99720.00
2022-09-06T02:54:51.661Z,99709.28
2022-09-06T02:57:18.051Z,99689.69
2022-09-06T02:59:44.463Z,99671.25
2022-09-06T03:02:10.878Z,99667.09
2022-09-06T03:04:37.280Z,99646.81
2022-09-06T03:07:03.727Z,99654.75
2022-09-06T03:09:30.113Z,99665.00
2022-09-06T03:11:56.495Z,99656.69
2022-09-06T03:14:22.862Z,99644.47
2022-09-06T03:16:49.291Z,99647.88
2022-09-06T03:19:15.754Z,99642.00
2022-09-06T03:21:42.142Z,99644.41
2022-09-06T03:24:08.499Z,99619.59
2022-09-06T03:26:34.881Z,99612.25
2022-09-06T03:29:01.246Z,99591.31
2022-09-06T03:31:27.676Z,99587.28
2022-09-06T03:33:54.153Z,99594.06
2022-09-06T03:36:20.538Z,99620.56
2022-09-06T03:38:46.990Z,99629.28
2022-09-06T03:41:13.394Z,99603.50
2022-09-06T03:43:40.115Z,99601.03
2022-09-06T03:46:06.589Z,99609.06
2022-09-06T03:48:33.113Z,99625.13
2022-09-06T03:50:59.778Z,99620.47
2022-09-06T03:53:28.623Z,99622.66
2022-09-06T03:55:57.530Z,99620.00
2022-09-06T03:58:25.312Z,99618.50
2022-09-06T04:01:04.867Z,99624.22
2022-09-06T04:03:31.511Z,99616.56
2022-09-06T04:05:57.993Z,99611.91
2022-09-06T04:08:24.480Z,99606.94
2022-09-06T04:10:53.608Z,99596.84
2022-09-06T04:13:20.085Z,99598.75
2022-09-06T04:15:47.720Z,99595.22
2022-09-06T04:18:14.782Z,99605.94
2022-09-06T04:20:42.039Z,99602.91
2022-09-06T04:23:08.760Z,99597.44
2022-09-06T04:25:35.176Z,99595.28
2022-09-06T04:28:01.839Z,99595.31
2022-09-06T04:30:28.317Z,99598.69
2022-09-06T04:32:54.679Z,99593.50
2022-09-06T04:35:21.082Z,99597.84
2022-09-06T04:37:47.479Z,99597.66
2022-09-06T04:40:13.973Z,99609.56
2022-09-06T04:42:40.415Z,99614.09
2022-09-06T04:45:07.328Z,99612.75
2022-09-06T04:47:33.769Z,99618.44
2022-09-06T04:50:00.175Z,99627.84
2022-09-06T04:52:30.116Z,99616.47
2022-09-06T04:54:57.081Z,99627.16
2022-09-06T04:57:23.456Z,99615.97
2022-09-06T04:59:49.825Z,99620.34
2022-09-06T05:02:16.341Z,99621.88
2022-09-06T05:04:42.744Z,99629.88
2022-09-06T05:07:09.346Z,99639.41
2022-09-06T05:09:36.712Z,99648.44
2022-09-06T05:12:03.572Z,99647.78
2022-09-06T05:14:30.018Z,99646.78
2022-09-06T05:16:56.646Z,99662.13
2022-09-06T05:19:23.161Z,99654.94
2022-09-06T05:21:51.457Z,99651.97
2022-09-06T05:24:17.900Z,99649.09
2022-09-06T05:26:44.398Z,99660.63
2022-09-06T05:29:10.904Z,99665.31
2022-09-06T05:31:37.356Z,99667.66
2022-09-06T05:34:03.848Z,99677.00
2022-09-06T05:36:30.779Z,99679.00
2022-09-06T05:38:58.628Z,99671.00
2022-09-06T05:41:25.541Z,99678.81
2022-09-06T05:43:51.986Z,99672.00
2022-09-06T05:46:18.612Z,99676.34
2022-09-06T05:48:51.946Z,99677.00
2022-09-06T05:51:18.324Z,99677.84
2022-09-06T05:53:46.015Z,99683.88
2022-09-06T05:56:14.250Z,99689.38
2022-09-06T05:58:40.853Z,99682.53
2022-09-06T06:01:18.657Z,99692.41
2022-09-06T06:04:00.244Z,99695.06
2022-09-06T06:06:28.663Z,99698.72
2022-09-06T06:08:56.218Z,99691.03
2022-09-06T06:11:23.415Z,99686.19
2022-09-06T06:13:50.570Z,99690.69
2022-09-06T06:16:18.428Z,99695.88
2022-09-06T06:18:48.749Z,99696.50
2022-09-06T06:21:43.625Z,99690.16
2022-09-06T06:24:10.078Z,99690.31
2022-09-06T06:26:36.947Z,99689.25
2022-09-06T06:29:05.627Z,99689.41
2022-09-06T06:31:33.187Z,99690.41
2022-09-06T06:34:02.720Z,99695.06
2022-09-06T06:36:33.793Z,99690.84
2022-09-06T06:39:01.116Z,99694.31
2022-09-06T06:41:29.882Z,99699.81
2022-09-06T06:43:58.510Z,99708.84
2022-09-06T06:46:27.678Z,99705.28
2022-09-06T06:48:55.438Z,99701.72
2022-09-06T06:51:24.576Z,99701.88
2022-09-06T06:53:51.551Z,99700.34
2022-09-06T06:56:21.338Z,99708.31
2022-09-06T06:58:49.514Z,99700.59
2022-09-06T07:01:16.956Z,99699.03
2022-09-06T07:03:43.740Z,99700.00
2022-09-06T07:08:42.576Z,99692.19
2022-09-06T07:11:14.238Z,99698.66
2022-09-06T07:13:40.848Z,99686.72
2022-09-06T07:16:13.598Z,99700.91
2022-09-06T07:18:43.028Z,99691.13
2022-09-06T07:26:31.140Z,99690.59
2022-09-06T07:29:00.563Z,99695.28
2022-09-06T07:34:14.929Z,99695.94
2022-09-06T07:36:41.315Z,99694.00
2022-09-06T07:39:07.720Z,99692.22
2022-09-06T07:41:34.103Z,99697.53
2022-09-06T07:44:00.553Z,99700.97
2022-09-06T07:46:26.948Z,99691.78
2022-09-06T07:48:53.396Z,99690.84
2022-09-06T07:51:21.325Z,99694.41
2022-09-06T07:53:57.911Z,99694.88
2022-09-06T07:56:33.780Z,99689.41
2022-09-06T07:59:00.160Z,99692.19
2022-09-06T08:01:36.625Z,99691.50
2022-09-06T08:04:08.589Z,99679.03
2022-09-06T08:09:25.060Z,99687.09
2022-09-06T08:11:52.608Z,99691.13
2022-09-06T08:14:19.773Z,99686.31
2022-09-06T08:16:46.396Z,99682.69
2022-09-06T08:19:14.298Z,99688.75
2022-09-06T08:21:40.670Z,99676.53
2022-09-06T08:24:12.194Z,99689.44
2022-09-06T08:26:43.035Z,99686.84
2022-09-06T08:29:10.872Z,99681.03
2022-09-06T08:31:40.054Z,99678.00
2022-09-06T08:34:06.566Z,99679.06
2022-09-06T08:36:33.995Z,99669.94
2022-09-06T08:39:02.321Z,99665.63
2022-09-06T08:41:51.869Z,99667.53
2022-09-06T08:47:14.956Z,99676.94
2022-09-06T08:49:46.657Z,99666.66
2022-09-06T08:52:31.368Z,99667.94
2022-09-06T08:55:09.900Z,99671.53
2022-09-06T08:57:55.489Z,99663.66
2022-09-06T09:00:23.094Z,99662.00
2022-09-06T09:03:00.030Z,99660.81
2022-09-06T09:05:37.293Z,99654.16
2022-09-06T09:08:31.524Z,99648.13
2022-09-06T09:11:02.367Z,99650.44
2022-09-06T09:13:36.050Z,99640.25
2022-09-06T09:16:02.673Z,99633.59
2022-09-06T09:18:33.479Z,99627.94
2022-09-06T09:21:00.268Z,99632.53
2022-09-06T09:23:29.099Z,99628.97
2022-09-06T09:26:00.043Z,99623.13
2022-09-06T09:28:26.803Z,99618.09
2022-09-06T09:30:55.630Z,99618.28
2022-09-06T09:33:22.225Z,99613.47
2022-09-06T09:35:49.072Z,99616.91
2022-09-06T09:38:24.110Z,99610.00
2022-09-06T09:40:55.289Z,99609.75
2022-09-06T09:43:21.716Z,99603.66
2022-09-06T09:46:15.571Z,99605.44
2022-09-06T09:49:03.583Z,99601.22
2022-09-06T09:51:32.077Z,99601.53
2022-09-06T09:54:00.875Z,99603.72
2022-09-06T09:56:29.596Z,99606.53
2022-09-06T09:58:58.072Z,99608.28
2022-09-06T10:01:31.632Z,99597.31
2022-09-06T10:09:37.321Z,99610.09
2022-09-06T10:12:03.934Z,99610.22
2022-09-06T10:14:33.749Z,99603.22
2022-09-06T10:17:00.667Z,99611.25
2022-09-06T10:19:38.444Z,99598.22
2022-09-06T10:22:27.524Z,99601.81
2022-09-06T10:25:26.260Z,99594.75
2022-09-06T10:28:27.454Z,99589.47
2022-09-06T10:31:27.884Z,99584.69
2022-09-06T10:34:20.467Z,99581.19
2022-09-06T10:37:13.228Z,99578.72
2022-09-06T10:39:54.105Z,99575.06
2022-09-06T10:42:40.438Z,99582.50
2022-09-06T10:45:34.906Z,99582.03
2022-09-06T10:48:15.565Z,99575.44
2022-09-06T10:50:58.570Z,99575.78
2022-09-06T10:53:33.568Z,99574.94
2022-09-06T10:56:07.344Z,99567.56
2022-09-06T11:01:40.297Z,99566.00
2022-09-06T11:04:13.155Z,99556.31
2022-09-06T11:06:47.988Z,99548.50
2022-09-06T11:09:33.869Z,99546.72
2022-09-06T11:12:13.663Z,99546.25
2022-09-06T11:14:41.160Z,99545.38
2022-09-06T11:17:13.838Z,99544.66
2022-09-06T11:20:09.112Z,99544.44
2022-09-06T11:22:39.970Z,99550.81
2022-09-06T11:25:22.468Z,99548.09
2022-09-06T11:27:58.150Z,99538.75
2022-09-06T11:30:26.212Z,99538.13
2022-09-06T11:33:13.019Z,99539.16
2022-09-06T11:35:41.142Z,99527.19
2022-09-06T11:38:21.419Z,99531.00
2022-09-06T11:40:53.950Z,99529.13
2022-09-06T11:43:52.265Z,99529.13
2022-09-06T11:46:33.923Z,99522.09
2022-09-06T11:49:27.223Z,99526.41
2022-09-06T11:51:53.839Z,99518.88
2022-09-06T11:54:23.007Z,99526.56
2022-09-06T11:57:09.038Z,99513.63
2022-09-06T12:00:15.200Z,99516.69
2022-09-06T12:02:42.791Z,99512.06
2022-09-06T12:05:13.263Z,99512.78
2022-09-06T12:08:18.448Z,99508.47
2022-09-06T12:10:50.572Z,99511.28
2022-09-06T12:13:44.890Z,99500.53
2022-09-06T12:16:12.299Z,99508.22
2022-09-06T12:18:47.875Z,99506.66
2022-09-06T12:21:41.220Z,99507.53
2022-09-06T12:24:29.188Z,99504.59
2022-09-06T12:27:19.255Z,99505.63
2022-09-06T12:29:59.222Z,99501.25
2022-09-06T12:32:33.627Z,99494.44
2022-09-06T12:38:04.539Z,99492.50
2022-09-06T12:40:35.196Z,99481.03
2022-09-06T12:43:03.212Z,99477.25
2022-09-06T12:45:29.855Z,99482.22
2022-09-06T12:48:08.880Z,99471.41
2022-09-06T12:50:36.295Z,99471.91
2022-09-06T12:53:17.257Z,99477.66
2022-09-06T12:55:45.112Z,99472.16
2022-09-06T12:58:12.412Z,99473.50
2022-09-06T13:00:43.837Z,99460.56
2022-09-06T13:03:10.168Z,99455.28
2022-09-06T13:05:42.536Z,99450.13
2022-09-06T13:08:30.790Z,99444.66
2022-09-06T13:10:57.576Z,99445.03
2022-09-06T13:13:26.551Z,99441.81
2022-09-06T13:15:53.981Z,99452.72
2022-09-06T13:18:30.493Z,99455.94
2022-09-06T13:21:06.542Z,99452.06
2022-09-06T13:23:47.603Z,99448.00
2022-09-06T13:26:14.668Z,99452.78
2022-09-06T13:28:41.263Z,99458.16
2022-09-06T13:31:14.196Z,99449.59
2022-09-06T13:33:41.815Z,99443.16
2022-09-06T13:36:10.921Z,99439.44
2022-09-06T13:38:37.256Z,99435.56
2022-09-06T13:41:11.653Z,99424.81
2022-09-06T13:43:45.092Z,99415.69
2022-09-06T13:46:11.829Z,99422.94
2022-09-06T13:48:39.470Z,99430.38
2022-09-06T13:51:07.703Z,99426.78
2022-09-06T13:53:34.619Z,99437.78
2022-09-06T13:56:01.228Z,99431.69
2022-09-06T13:58:27.823Z,99422.00
2022-09-06T14:00:54.347Z,99417.44
2022-09-06T14:03:25.704Z,99424.16
2022-09-06T14:05:52.197Z,99414.72
2022-09-06T14:08:18.784Z,99421.91
2022-09-06T14:10:47.819Z,99427.81
2022-09-06T14:13:16.128Z,99424.72
2022-09-06T14:15:42.810Z,99420.59
2022-09-06T14:18:13.805Z,99433.81
2022-09-06T14:20:40.842Z,99439.00
2022-09-06T14:23:07.920Z,99427.91
2022-09-06T14:25:35.815Z,99453.00
2022-09-06T14:28:03.892Z,99454.44
2022-09-06T14:30:30.977Z,99452.41
2022-09-06T14:32:57.490Z,99446.41
2022-09-06T14:35:24.098Z,99442.84
2022-09-06T14:37:50.832Z,99434.91
2022-09-06T14:40:17.355Z,99425.84
2022-09-06T14:42:46.568Z,99428.81
2022-09-06T14:45:15.102Z,99424.88
2022-09-06T14:47:41.575Z,99417.19
2022-09-06T14:50:08.432Z,99427.41
2022-09-06T14:52:34.906Z,99426.19
2022-09-06T14:55:01.400Z,99438.28
2022-09-06T14:57:29.232Z,99435.56
2022-09-06T14:59:56.161Z,99438.13
2022-09-06T15:02:22.703Z,99443.97
2022-09-06T15:04:49.197Z,99431.97
2022-09-06T15:07:15.612Z,99427.28
2022-09-06T15:09:42.524Z,99426.59
2022-09-06T15:12:08.918Z,99430.06
2022-09-06T15:14:37.298Z,99430.94
2022-09-06T15:17:08.626Z,99433.16
2022-09-06T15:19:36.868Z,99428.78
2022-09-06T15:22:04.967Z,99441.78
2022-09-06T15:24:32.772Z,99449.06
2022-09-06T15:26:59.944Z,99450.16
2022-09-06T15:29:29.514Z,99459.50
2022-09-06T15:31:56.204Z,99454.91
2022-09-06T15:34:25.127Z,99460.34
2022-09-06T15:36:53.215Z,99451.47
2022-09-06T15:39:20.097Z,99470.19
2022-09-06T15:41:46.532Z,99459.66
2022-09-06T15:44:15.478Z,99456.69
2022-09-06T15:46:49.911Z,99458.78
2022-09-06T15:49:27.476Z,99474.97
2022-09-06T15:51:56.455Z,99479.84
2022-09-06T15:54:41.624Z,99488.75
2022-09-06T15:57:09.287Z,99484.63
2022-09-06T15:59:35.846Z,99475.94
2022-09-06T16:02:02.279Z,99478.72
2022-09-06T16:04:28.691Z,99476.06
2022-09-06T16:06:56.650Z,99483.28
2022-09-06T16:09:23.196Z,99492.44
2022-09-06T16:11:50.637Z,99500.94
2022-09-06T16:14:17.957Z,99515.25
2022-09-06T16:16:44.638Z,99501.16
2022-09-06T16:19:12.930Z,99512.59
2022-09-06T16:21:41.605Z,99527.13
2022-09-06T16:24:10.525Z,99519.25
2022-09-06T16:26:39.712Z,99517.19
2022-09-06T16:29:07.898Z,99511.16
2022-09-06T16:31:39.739Z,99511.38
2022-09-06T16:34:07.687Z,99510.34
2022-09-06T16:36:34.404Z,99515.09
2022-09-06T16:39:00.884Z,99506.69
2022-09-06T16:41:32.906Z,99505.44
2022-09-06T16:43:59.323Z,99493.78
2022-09-06T16:46:28.670Z,99497.78
2022-09-06T16:49:01.423Z,99482.03
2022-09-06T16:51:29.524Z,99477.69
2022-09-06T16:53:56.473Z,99483.06
2022-09-06T16:56:25.307Z,99466.44
2022-09-06T16:58:54.065Z,99455.28
2022-09-06T17:01:21.659Z,99442.03
2022-09-06T17:03:48.402Z,99445.56
2022-09-06T17:06:14.945Z,99459.19
2022-09-06T17:08:41.769Z,99446.31
2022-09-06T17:11:14.642Z,99444.88
2022-09-06T17:13:42.502Z,99451.09
2022-09-06T17:16:27.679Z,99442.88
2022-09-06T17:18:54.161Z,99449.72
2022-09-06T17:21:22.258Z,99447.84
2022-09-06T17:23:49.914Z,99453.44
2022-09-06T17:26:19.522Z,99455.31
2022-09-06T17:28:46.099Z,99476.25
2022-09-06T17:31:13.105Z,99488.06
2022-09-06T17:33:39.761Z,99480.75
2022-09-06T17:36:11.579Z,99483.84
2022-09-06T17:38:39.267Z,99469.97
2022-09-06T17:41:06.384Z,99477.22
2022-09-06T17:43:36.183Z,99467.25
2022-09-06T17:46:04.283Z,99469.97
2022-09-06T17:48:30.862Z,99473.69
2022-09-06T17:51:04.967Z,99473.47
2022-09-06T17:53:31.839Z,99468.47
2022-09-06T17:55:58.292Z,99465.56
2022-09-06T17:58:24.840Z,99462.88
2022-09-06T18:00:51.299Z,99454.81
2022-09-06T18:03:17.734Z,99457.09
2022-09-06T18:05:45.155Z,99439.91
2022-09-06T18:08:11.737Z,99436.56
2022-09-06T18:10:38.755Z,99441.31
2022-09-06T18:13:06.062Z,99437.56
2022-09-06T18:15:38.172Z,99438.19
2022-09-06T18:18:04.673Z,99436.13
2022-09-06T18:20:31.108Z,99427.03
2022-09-06T18:22:57.999Z,99425.38
2022-09-06T18:25:24.566Z,99422.03
2022-09-06T18:27:51.119Z,99420.63
2022-09-06T18:30:17.824Z,99433.69
2022-09-06T18:32:44.653Z,99423.72
2022-09-06T18:35:11.134Z,99407.97
2022-09-06T18:37:38.610Z,99405.06
2022-09-06T18:40:06.265Z,99406.00
2022-09-06T18:42:33.519Z,99416.38
2022-09-06T18:44:59.907Z,99415.34
2022-09-06T18:47:26.284Z,99423.91
2022-09-06T18:49:52.657Z,99410.63
2022-09-06T18:52:20.600Z,99419.63
2022-09-06T18:54:48.121Z,99420.44
2022-09-06T18:57:15.736Z,99415.19
2022-09-06T18:59:42.147Z,99416.59
2022-09-06T19:02:08.628Z,99417.19
2022-09-06T19:04:35.130Z,99418.81
2022-09-06T19:07:02.807Z,99414.22
2022-09-06T19:09:29.265Z,99400.94
2022-09-06T19:11:55.691Z,99401.81
2022-09-06T19:14:22.161Z,99402.41
2022-09-06T19:16:50.031Z,99401.94
2022-09-06T19:19:16.729Z,99403.38
2022-09-06T19:21:43.100Z,99398.66
2022-09-06T19:24:12.060Z,99394.06
2022-09-06T19:26:41.452Z,99390.59
2022-09-06T19:29:12.734Z,99380.66
2022-09-06T19:31:39.492Z,99380.06
2022-09-06T19:34:07.319Z,99370.75
2022-09-06T19:36:33.852Z,99381.66
2022-09-06T19:39:09.547Z,99365.91
2022-09-06T19:41:38.540Z,99364.59
2022-09-06T19:44:08.272Z,99367.09
2022-09-06T19:46:35.114Z,99359.69
2022-09-06T19:49:02.137Z,99362.94
2022-09-06T19:51:28.595Z,99359.13
2022-09-06T19:54:00.236Z,99350.38
2022-09-06T19:56:33.559Z,99360.31
2022-09-06T19:59:02.524Z,99354.00
2022-09-06T20:01:31.103Z,99352.03
2022-09-06T20:03:58.720Z,99359.25
2022-09-06T20:06:25.999Z,99365.25
2022-09-06T20:08:53.964Z,99381.03
2022-09-06T20:11:21.868Z,99376.88
2022-09-06T20:13:48.923Z,99372.06
2022-09-06T20:16:16.010Z,99373.09
2022-09-06T20:18:42.751Z,99368.09
2022-09-06T20:21:09.893Z,99366.44
2022-09-06T20:23:36.666Z,99365.19
2022-09-06T20:26:07.854Z,99370.25
2022-09-06T20:28:35.077Z,99359.50
2022-09-06T20:31:03.998Z,99354.66
2022-09-06T20:33:31.104Z,99347.25
2022-09-06T20:35:59.362Z,99353.91
2022-09-06T20:38:26.368Z,99355.59
2022-09-06T20:41:11.716Z,99350.75
2022-09-06T20:43:39.405Z,99359.34
2022-09-06T20:46:10.211Z,99362.97
2022-09-06T20:48:44.386Z,99360.09
2022-09-06T20:51:13.787Z,99355.75
2022-09-06T20:53:40.664Z,99351.41
2022-09-06T20:56:13.297Z,99350.97
2022-09-06T20:58:40.812Z,99344.56
2022-09-06T21:01:09.573Z,99354.28
2022-09-06T21:03:39.090Z,99351.16
2022-09-06T21:06:10.882Z,99345.78
2022-09-06T21:08:42.365Z,99346.16
2022-09-06T21:11:10.067Z,99353.06
2022-09-06T21:13:36.971Z,99350.78
2022-09-06T21:16:04.723Z,99345.03
2022-09-06T21:18:31.985Z,99350.16
2022-09-06T21:21:01.002Z,99356.59
2022-09-06T21:23:29.070Z,99349.69
2022-09-06T21:26:01.748Z,99362.28
2022-09-06T21:28:30.474Z,99348.34
2022-09-06T21:31:04.699Z,99350.72
2022-09-06T21:33:33.004Z,99353.03
2022-09-06T21:36:07.339Z,99353.03
2022-09-06T21:38:35.325Z,99366.53
2022-09-06T21:41:03.216Z,99364.88
2022-09-06T21:43:30.073Z,99362.28
2022-09-06T21:45:58.067Z,99371.72
2022-09-06T21:48:24.621Z,99370.31
2022-09-06T21:50:51.494Z,99366.03
2022-09-06T21:53:18.020Z,99366.50
2022-09-06T21:55:45.048Z,99360.19
2022-09-06T21:58:13.096Z,99356.44
2022-09-06T22:00:41.203Z,99349.13
2022-09-06T22:03:08.187Z,99346.53
2022-09-06T22:05:34.944Z,99346.38
2022-09-06T22:08:01.996Z,99360.41
2022-09-06T22:10:28.444Z,99361.59
2022-09-06T22:12:54.844Z,99350.88
2022-09-06T22:15:22.092Z,99348.56
2022-09-06T22:17:48.980Z,99337.75
2022-09-06T22:20:15.445Z,99336.28
2022-09-06T22:22:43.940Z,99336.47
2022-09-06T22:25:10.324Z,99338.06
2022-09-06T22:27:37.187Z,99345.53
2022-09-06T22:30:04.508Z,99344.13
2022-09-06T22:32:30.880Z,99329.13
2022-09-06T22:34:57.295Z,99336.16
2022-09-06T22:37:23.860Z,99330.19
2022-09-06T22:39:50.664Z,99329.28
2022-09-06T22:42:17.070Z,99327.69
2022-09-06T22:44:43.459Z,99334.78
2022-09-06T22:47:09.871Z,99331.09
2022-09-06T22:49:36.243Z,99325.94
2022-09-06T22:52:03.108Z,99322.81
2022-09-06T22:54:29.484Z,99324.16
2022-09-06T22:56:55.866Z,99320.69
2022-09-06T22:59:22.368Z,99320.56
2022-09-06T23:01:48.748Z,99319.25
2022-09-06T23:04:15.168Z,99317.59
2022-09-06T23:06:41.597Z,99327.91
2022-09-06T23:09:08.036Z,99328.19
2022-09-06T23:11:34.431Z,99333.56
2022-09-06T23:14:00.965Z,99335.59
2022-09-06T23:16:28.369Z,99331.44
2022-09-06T23:18:55.348Z,99340.13
2022-09-06T23:21:24.222Z,99349.69
2022-09-06T23:23:52.361Z,99347.53
2022-09-06T23:26:21.579Z,99342.72
2022-09-06T23:28:51.602Z,99338.56
2022-09-06T23:31:18.114Z,99342.72
2022-09-06T23:33:44.518Z,99352.16
2022-09-06T23:36:14.509Z,99355.00
2022-09-06T23:38:42.025Z,99362.97
2022-09-06T23:41:09.822Z,99364.22
2022-09-06T23:43:36.808Z,99362.19
2022-09-06T23:46:03.509Z,99355.56
2022-09-06T23:48:30.196Z,99349.81
2022-09-06T23:50:57.043Z,99352.66
2022-09-06T23:53:23.600Z,99350.50
2022-09-06T23:55:50.025Z,99353.91
2022-09-06T23:58:16.430Z,99365.53
